Time;durP1;ratioP1;P1;durP2;ratioP2;P2;SDS_P1;SDS_P2;PMS_P1;PMS_P2;Temp;Humidity;BMP_temperature;BMP_pressure;BME280_temperature;BME280_humidity;BME280_pressure;Samples;Min_cycle;Max_cycle;Signal;HPM_P1;HPM_P2
2023/12/10 00:01:13;;;;;;;;;;;7.70;92.70;;;;;;5093629;28;19965;-75
2023/12/10 00:03:38;;;;;;;;;;;7.70;92.70;;;;;;5112182;28;20256;-74
2023/12/10 00:06:04;;;;;;;;;;;7.70;92.80;;;;;;5111936;28;19915;-75
2023/12/10 00:08:30;;;;;;;;;;;7.60;92.80;;;;;;5111987;28;20371;-74
2023/12/10 00:10:55;;;;;;;;;;;7.70;92.80;;;;;;5093406;28;19912;-75
2023/12/10 00:13:21;;;;;;;;;;;7.70;92.80;;;;;;5111624;28;19978;-74
2023/12/10 00:15:46;;;;;;;;;;;7.70;92.80;;;;;;5093549;28;19919;-75
2023/12/10 00:18:12;;;;;;;;;;;7.70;92.80;;;;;;5111529;28;19907;-75
2023/12/10 00:20:37;;;;;;;;;;;7.70;92.80;;;;;;5111947;28;19912;-75
2023/12/10 00:23:03;;;;;;;;;;;7.70;92.80;;;;;;5093572;28;20324;-74
2023/12/10 00:25:31;;;;;;;;;;;7.70;92.80;;;;;;5093381;28;19920;-75
2023/12/10 00:27:58;;;;;;;;;;;7.70;92.80;;;;;;5111831;28;19908;-75
2023/12/10 00:30:23;;;;;;;;;;;7.70;92.80;;;;;;5111908;28;20390;-75
2023/12/10 00:32:49;;;;;;;;;;;7.60;92.70;;;;;;5111847;28;19912;-74
2023/12/10 00:35:14;;;;;;;;;;;7.60;92.70;;;;;;5111684;28;19907;-74
2023/12/10 00:37:40;;;;;;;;;;;7.60;92.70;;;;;;5093366;28;20313;-74
2023/12/10 00:40:06;;;;;;;;;;;7.60;92.70;;;;;;5111754;28;19936;-75
2023/12/10 00:42:32;;;;;;;;;;;7.60;92.70;;;;;;5093423;28;19912;-74
2023/12/10 00:44:57;;;;;;;;;;;7.50;92.70;;;;;;5111529;28;19908;-74
2023/12/10 00:47:23;;;;;;;;;;;7.50;92.70;;;;;;5111661;28;19935;-74
2023/12/10 00:49:49;;;;;;;;;;;7.50;92.70;;;;;;5093176;28;20386;-74
2023/12/10 00:52:14;;;;;;;;;;;7.50;92.70;;;;;;5111545;28;19994;-74
2023/12/10 00:54:40;;;;;;;;;;;7.40;92.70;;;;;;5076240;28;19919;-74
2023/12/10 00:57:05;;;;;;;;;;;7.40;92.70;;;;;;5093405;28;19907;-76
2023/12/10 00:59:31;;;;;;;;;;;7.40;92.70;;;;;;5111580;28;20253;-77
2023/12/10 01:01:57;;;;;;;;;;;7.40;92.70;;;;;;5111666;28;19904;-77
2023/12/10 01:04:23;;;;;;;;;;;7.40;92.80;;;;;;5093241;28;20336;-76
2023/12/10 01:06:49;;;;;;;;;;;7.40;92.80;;;;;;5093175;28;20010;-76
2023/12/10 01:09:15;;;;;;;;;;;7.40;92.80;;;;;;5111466;28;19910;-76
2023/12/10 01:11:41;;;;;;;;;;;7.40;92.80;;;;;;5093133;28;19919;-77
2023/12/10 01:14:06;;;;;;;;;;;7.40;92.80;;;;;;5093325;28;20015;-76
2023/12/10 01:16:32;;;;;;;;;;;7.40;92.80;;;;;;5093244;28;19922;-76
2023/12/10 01:18:57;;;;;;;;;;;7.40;92.80;;;;;;5111466;28;19908;-77
2023/12/10 01:21:23;;;;;;;;;;;7.50;92.80;;;;;;5111409;28;19956;-76
2023/12/10 01:23:54;;;;;;;;;;;7.50;92.80;;;;;;5093171;28;20271;-76
2023/12/10 01:26:20;;;;;;;;;;;7.60;92.80;;;;;;5111302;28;19934;-76
2023/12/10 01:28:45;;;;;;;;;;;7.60;92.90;;;;;;5111428;28;20151;-76
2023/12/10 01:31:11;;;;;;;;;;;7.60;92.80;;;;;;5113589;28;19908;-77
2023/12/10 01:33:36;;;;;;;;;;;7.70;92.90;;;;;;5096723;28;19914;-77
2023/12/10 01:36:02;;;;;;;;;;;7.70;92.80;;;;;;5079736;28;19956;-76
2023/12/10 01:38:28;;;;;;;;;;;7.70;92.80;;;;;;5114928;28;19923;-75
2023/12/10 01:40:53;;;;;;;;;;;7.70;92.80;;;;;;5114962;28;19928;-75
2023/12/10 01:43:19;;;;;;;;;;;7.70;92.80;;;;;;5114923;28;19911;-75
2023/12/10 01:45:50;;;;;;;;;;;7.70;92.80;;;;;;5114635;28;19908;-74
2023/12/10 01:48:20;;;;;;;;;;;7.70;92.80;;;;;;5096400;28;19924;-74
2023/12/10 01:50:46;;;;;;;;;;;7.70;92.70;;;;;;5096350;28;19904;-74
2023/12/10 01:53:12;;;;;;;;;;;7.70;92.70;;;;;;5114647;28;19998;-74
2023/12/10 01:55:37;;;;;;;;;;;7.70;92.70;;;;;;5114602;28;20064;-74
2023/12/10 01:58:06;;;;;;;;;;;7.70;92.80;;;;;;5114613;28;19903;-75
2023/12/10 02:00:32;;;;;;;;;;;7.70;92.80;;;;;;5096121;28;19912;-75
2023/12/10 02:03:00;;;;;;;;;;;7.70;92.80;;;;;;5096219;28;19944;-75
2023/12/10 02:05:25;;;;;;;;;;;7.70;92.80;;;;;;5096092;28;19957;-74
2023/12/10 02:07:52;;;;;;;;;;;7.80;92.80;;;;;;5096173;28;19908;-77
2023/12/10 02:10:17;;;;;;;;;;;7.80;92.80;;;;;;5096191;28;19911;-74
2023/12/10 02:12:43;;;;;;;;;;;7.80;92.80;;;;;;5114620;28;19908;-74
2023/12/10 02:15:18;;;;;;;;;;;7.80;92.80;;;;;;5096113;28;19908;-74
2023/12/10 02:17:45;;;;;;;;;;;7.80;92.80;;;;;;5095756;28;19903;-74
2023/12/10 02:20:14;;;;;;;;;;;7.90;92.80;;;;;;5114145;28;20290;-74
2023/12/10 02:22:54;;;;;;;;;;;7.90;92.80;;;;;;5095718;28;20244;-74
2023/12/10 02:25:27;;;;;;;;;;;7.90;92.80;;;;;;5095414;28;19922;-75
2023/12/10 02:27:53;;;;;;;;;;;7.90;92.80;;;;;;5113944;28;19911;-75
2023/12/10 02:30:18;;;;;;;;;;;7.90;92.80;;;;;;5113678;28;19916;-75
2023/12/10 02:32:45;;;;;;;;;;;7.90;92.70;;;;;;5113653;28;19903;-75
2023/12/10 02:35:11;;;;;;;;;;;7.90;92.70;;;;;;5078589;28;19916;-74
2023/12/10 02:37:36;;;;;;;;;;;7.90;92.70;;;;;;5113677;28;19919;-74
2023/12/10 02:40:02;;;;;;;;;;;7.90;92.70;;;;;;5095355;28;19926;-75
2023/12/10 02:42:28;;;;;;;;;;;7.90;92.70;;;;;;5095239;28;20252;-75
2023/12/10 02:44:53;;;;;;;;;;;7.90;92.70;;;;;;5113616;28;19908;-74
2023/12/10 02:47:19;;;;;;;;;;;7.90;92.70;;;;;;5113514;28;19912;-75
2023/12/10 02:49:44;;;;;;;;;;;7.90;92.70;;;;;;5113559;28;19914;-75
2023/12/10 02:52:10;;;;;;;;;;;8.00;92.80;;;;;;5095521;28;20390;-75
2023/12/10 02:54:36;;;;;;;;;;;8.00;92.80;;;;;;5113277;28;20317;-75
2023/12/10 02:57:01;;;;;;;;;;;8.00;92.80;;;;;;5113483;28;19939;-75
2023/12/10 02:59:27;;;;;;;;;;;8.00;92.80;;;;;;5094998;28;20006;-74
2023/12/10 03:01:52;;;;;;;;;;;8.00;92.80;;;;;;5095032;28;19908;-74
2023/12/10 03:04:18;;;;;;;;;;;8.00;92.80;;;;;;5113272;28;20010;-75
2023/12/10 03:06:43;;;;;;;;;;;8.00;92.80;;;;;;5113241;28;19907;-75
2023/12/10 03:09:09;;;;;;;;;;;8.00;92.80;;;;;;5113075;28;19937;-75
2023/12/10 03:11:34;;;;;;;;;;;8.00;92.80;;;;;;5094862;28;20367;-74
2023/12/10 03:14:00;;;;;;;;;;;8.10;92.80;;;;;;5094768;28;20425;-74
2023/12/10 03:16:25;;;;;;;;;;;8.00;92.80;;;;;;5113350;28;20275;-74
2023/12/10 03:18:51;;;;;;;;;;;8.10;92.80;;;;;;5094952;28;19987;-74
2023/12/10 03:21:17;;;;;;;;;;;8.10;92.80;;;;;;5113079;28;19954;-75
2023/12/10 03:23:42;;;;;;;;;;;8.10;92.80;;;;;;5094751;28;20496;-74
2023/12/10 03:26:08;;;;;;;;;;;8.20;92.90;;;;;;5112629;28;19920;-75
2023/12/10 03:28:33;;;;;;;;;;;8.20;92.90;;;;;;5112959;28;19960;-74
2023/12/10 03:31:00;;;;;;;;;;;8.30;92.90;;;;;;5094424;28;19915;-75
2023/12/10 03:33:25;;;;;;;;;;;8.30;92.90;;;;;;5112707;28;19907;-74
2023/12/10 03:35:51;;;;;;;;;;;8.30;92.80;;;;;;5094323;28;20422;-75
2023/12/10 03:38:16;;;;;;;;;;;8.40;92.80;;;;;;5112784;28;20326;-75
2023/12/10 03:40:42;;;;;;;;;;;8.50;92.80;;;;;;5112610;28;19972;-74
2023/12/10 03:43:07;;;;;;;;;;;8.50;92.90;;;;;;5112623;28;20386;-74
2023/12/10 03:45:33;;;;;;;;;;;8.60;92.90;;;;;;5094175;28;20072;-74
2023/12/10 03:47:58;;;;;;;;;;;8.60;92.80;;;;;;5094300;28;19912;-75
2023/12/10 03:50:24;;;;;;;;;;;8.60;92.80;;;;;;5077371;28;19908;-74
2023/12/10 03:52:50;;;;;;;;;;;8.70;92.80;;;;;;5093793;28;19907;-74
2023/12/10 03:55:17;;;;;;;;;;;8.70;92.80;;;;;;5112021;28;19911;-74
2023/12/10 03:57:42;;;;;;;;;;;8.70;92.80;;;;;;5094182;28;19965;-74
2023/12/10 04:00:09;;;;;;;;;;;8.70;92.80;;;;;;5112311;28;19958;-75
2023/12/10 04:02:35;;;;;;;;;;;8.80;92.80;;;;;;5077220;28;19911;-74
2023/12/10 04:05:01;;;;;;;;;;;8.80;92.80;;;;;;5112224;28;19915;-74
2023/12/10 04:07:26;;;;;;;;;;;8.80;92.90;;;;;;5112059;28;20278;-74
2023/12/10 04:09:52;;;;;;;;;;;8.80;92.90;;;;;;5093898;28;20326;-74
2023/12/10 04:12:17;;;;;;;;;;;8.80;92.90;;;;;;5112603;28;20341;-74
2023/12/10 04:14:47;;;;;;;;;;;8.90;92.90;;;;;;5111948;28;19907;-74
2023/12/10 04:17:12;;;;;;;;;;;8.90;92.90;;;;;;5093760;28;20334;-75
2023/12/10 04:19:38;;;;;;;;;;;8.90;92.90;;;;;;5111903;28;19947;-74
2023/12/10 04:22:03;;;;;;;;;;;9.00;92.90;;;;;;5112109;28;19908;-74
2023/12/10 04:24:29;;;;;;;;;;;9.00;92.90;;;;;;5111834;28;20377;-74
2023/12/10 04:26:54;;;;;;;;;;;9.00;92.90;;;;;;5093707;28;19958;-74
2023/12/10 04:29:20;;;;;;;;;;;9.10;92.90;;;;;;5093740;28;19915;-75
2023/12/10 04:31:46;;;;;;;;;;;9.10;92.90;;;;;;5111907;28;19961;-76
2023/12/10 04:34:12;;;;;;;;;;;9.10;93.00;;;;;;5093690;28;19961;-75
2023/12/10 04:36:37;;;;;;;;;;;9.10;93.00;;;;;;5111726;28;20421;-75
2023/12/10 04:39:03;;;;;;;;;;;9.20;93.00;;;;;;5093554;28;19912;-75
2023/12/10 04:41:28;;;;;;;;;;;9.20;92.90;;;;;;5111892;28;20347;-75
2023/12/10 04:43:54;;;;;;;;;;;9.20;92.90;;;;;;5111720;28;20382;-75
2023/12/10 04:46:19;;;;;;;;;;;9.20;92.90;;;;;;5093495;28;19908;-75
2023/12/10 04:48:45;;;;;;;;;;;9.20;92.90;;;;;;5093461;28;19915;-75
2023/12/10 04:51:11;;;;;;;;;;;9.20;93.10;;;;;;5093429;28;19918;-76
2023/12/10 04:53:37;;;;;;;;;;;9.20;92.90;;;;;;5111698;28;19991;-76
2023/12/10 04:56:02;;;;;;;;;;;9.20;92.90;;;;;;5093076;28;20406;-76
2023/12/10 04:58:29;;;;;;;;;;;9.20;93.00;;;;;;5111636;28;20336;-76
2023/12/10 05:00:54;;;;;;;;;;;9.20;92.90;;;;;;5093377;28;19911;-76
2023/12/10 05:03:20;;;;;;;;;;;9.20;93.00;;;;;;5111752;28;19910;-76
2023/12/10 05:05:46;;;;;;;;;;;9.30;93.00;;;;;;5114810;28;19908;-76
2023/12/10 05:08:11;;;;;;;;;;;9.30;93.00;;;;;;5097320;28;20423;-76
2023/12/10 05:10:37;;;;;;;;;;;9.30;93.00;;;;;;5097346;28;19946;-76
2023/12/10 05:13:02;;;;;;;;;;;9.30;92.90;;;;;;5097187;28;19911;-75
2023/12/10 05:15:28;;;;;;;;;;;9.30;93.00;;;;;;5115348;28;19947;-75
2023/12/10 05:17:54;;;;;;;;;;;9.30;92.90;;;;;;5097176;28;19915;-75
2023/12/10 05:20:19;;;;;;;;;;;9.30;92.90;;;;;;5097251;28;19999;-75
2023/12/10 05:22:45;;;;;;;;;;;9.30;92.90;;;;;;5115364;28;19950;-76
2023/12/10 05:25:11;;;;;;;;;;;9.30;93.00;;;;;;5093370;28;19967;-76
2023/12/10 05:27:36;;;;;;;;;;;9.30;93.00;;;;;;5076715;28;19919;-76
2023/12/10 05:30:02;;;;;;;;;;;9.40;93.00;;;;;;5094800;28;19908;-76
2023/12/10 05:32:28;;;;;;;;;;;9.40;93.00;;;;;;5094914;28;19904;-75
2023/12/10 05:34:53;;;;;;;;;;;9.40;93.00;;;;;;5093259;28;19949;-76
2023/12/10 05:37:19;;;;;;;;;;;9.50;93.10;;;;;;5093391;28;19916;-76
2023/12/10 05:39:45;;;;;;;;;;;9.50;93.10;;;;;;5093353;28;20337;-75
2023/12/10 05:42:10;;;;;;;;;;;9.70;93.20;;;;;;5094593;28;19912;-75
2023/12/10 05:44:36;;;;;;;;;;;9.70;93.20;;;;;;5094511;28;19994;-76
2023/12/10 05:47:02;;;;;;;;;;;9.80;93.20;;;;;;5093310;28;20287;-76
2023/12/10 05:49:28;;;;;;;;;;;9.90;93.10;;;;;;5094297;28;20015;-76
2023/12/10 05:51:54;;;;;;;;;;;9.90;93.10;;;;;;5093076;28;19912;-75
2023/12/10 05:54:19;;;;;;;;;;;10.00;93.10;;;;;;5093009;28;19957;-76
2023/12/10 05:56:45;;;;;;;;;;;10.00;93.10;;;;;;5094194;28;20272;-75
2023/12/10 05:59:10;;;;;;;;;;;10.10;93.20;;;;;;5092981;28;19981;-76
2023/12/10 06:01:36;;;;;;;;;;;10.10;93.20;;;;;;5094346;28;19908;-76
2023/12/10 06:04:02;;;;;;;;;;;10.20;93.20;;;;;;5094341;28;20257;-76
2023/12/10 06:06:27;;;;;;;;;;;10.20;93.20;;;;;;5094072;28;19939;-75
2023/12/10 06:08:53;;;;;;;;;;;10.30;93.20;;;;;;5094168;28;19965;-75
2023/12/10 06:11:18;;;;;;;;;;;10.30;93.20;;;;;;5094125;28;20384;-76
2023/12/10 06:13:44;;;;;;;;;;;10.40;93.20;;;;;;5092759;28;19931;-76
2023/12/10 06:16:09;;;;;;;;;;;10.30;93.10;;;;;;5091784;28;19961;-75
2023/12/10 06:18:35;;;;;;;;;;;10.30;93.10;;;;;;5092717;28;19963;-75
2023/12/10 06:21:00;;;;;;;;;;;10.20;93.10;;;;;;5092407;28;19908;-76
2023/12/10 06:23:26;;;;;;;;;;;10.20;93.10;;;;;;5093876;28;20044;-76
2023/12/10 06:25:51;;;;;;;;;;;10.20;93.00;;;;;;5104334;28;19916;-76
2023/12/10 06:28:17;;;;;;;;;;;10.20;93.00;;;;;;5114103;28;19911;-76
2023/12/10 06:30:42;;;;;;;;;;;10.20;93.00;;;;;;5095906;28;20008;-76
2023/12/10 06:33:08;;;;;;;;;;;10.20;93.00;;;;;;5114107;28;20279;-76
2023/12/10 06:35:33;;;;;;;;;;;10.20;93.00;;;;;;5113929;28;20369;-76
2023/12/10 06:37:59;;;;;;;;;;;10.20;93.00;;;;;;5078770;28;19927;-75
2023/12/10 06:40:25;;;;;;;;;;;10.30;93.10;;;;;;5114008;28;19950;-75
2023/12/10 06:42:50;;;;;;;;;;;10.30;93.10;;;;;;5095628;28;19916;-75
2023/12/10 06:45:16;;;;;;;;;;;10.30;93.10;;;;;;5095477;28;19908;-76
2023/12/10 06:47:42;;;;;;;;;;;10.30;93.10;;;;;;5113782;28;19908;-76
2023/12/10 06:50:08;;;;;;;;;;;10.20;93.00;;;;;;5095382;28;20363;-76
2023/12/10 06:52:33;;;;;;;;;;;10.20;93.00;;;;;;5095400;28;19908;-77
2023/12/10 06:54:59;;;;;;;;;;;10.20;93.00;;;;;;5095149;28;19908;-76
2023/12/10 06:57:24;;;;;;;;;;;10.10;93.00;;;;;;5113549;28;19904;-76
2023/12/10 06:59:50;;;;;;;;;;;10.00;92.80;;;;;;5113625;28;20356;-75
2023/12/10 07:02:15;;;;;;;;;;;9.80;92.70;;;;;;5113612;28;20360;-76
2023/12/10 07:04:41;;;;;;;;;;;9.70;92.70;;;;;;5113455;28;20312;-76
2023/12/10 07:07:06;;;;;;;;;;;9.40;92.70;;;;;;5113403;28;19916;-75
2023/12/10 07:09:32;;;;;;;;;;;9.30;92.80;;;;;;5113303;28;19908;-76
2023/12/10 07:11:58;;;;;;;;;;;9.10;92.90;;;;;;5094916;28;19908;-76
2023/12/10 07:14:23;;;;;;;;;;;9.10;93.00;;;;;;5095055;28;19907;-75
2023/12/10 07:16:49;;;;;;;;;;;9.00;93.00;;;;;;5094596;28;19915;-76
2023/12/10 07:19:14;;;;;;;;;;;9.00;93.10;;;;;;5113169;28;19912;-76
2023/12/10 07:21:40;;;;;;;;;;;8.90;93.10;;;;;;5113215;28;20351;-76
2023/12/10 07:24:06;;;;;;;;;;;8.90;93.10;;;;;;5113011;28;20268;-76
2023/12/10 07:26:31;;;;;;;;;;;8.90;93.10;;;;;;5112647;28;20371;-76
2023/12/10 07:28:57;;;;;;;;;;;8.90;93.10;;;;;;5093903;28;19922;-76
2023/12/10 07:31:22;;;;;;;;;;;8.80;93.00;;;;;;5094602;28;19915;-75
2023/12/10 07:33:48;;;;;;;;;;;8.70;93.00;;;;;;5094498;28;19904;-75
2023/12/10 07:36:14;;;;;;;;;;;8.70;93.00;;;;;;5112766;28;19911;-75
2023/12/10 07:38:39;;;;;;;;;;;8.60;93.00;;;;;;5113163;28;19911;-75
2023/12/10 07:41:05;;;;;;;;;;;8.50;93.00;;;;;;5112455;28;19908;-75
2023/12/10 07:43:31;;;;;;;;;;;8.40;93.00;;;;;;5112226;28;19911;-76
2023/12/10 07:45:56;;;;;;;;;;;8.40;93.00;;;;;;5112203;28;19908;-75
2023/12/10 07:48:22;;;;;;;;;;;8.40;93.10;;;;;;5112610;28;19919;-76
2023/12/10 07:50:48;;;;;;;;;;;8.30;93.10;;;;;;5112564;28;19903;-76
2023/12/10 07:53:13;;;;;;;;;;;8.30;93.10;;;;;;5112578;28;20061;-76
2023/12/10 07:55:39;;;;;;;;;;;8.40;93.10;;;;;;5093971;28;19912;-75
2023/12/10 07:58:04;;;;;;;;;;;8.30;93.10;;;;;;5112371;28;19908;-76
2023/12/10 08:00:30;;;;;;;;;;;8.30;93.00;;;;;;5112287;28;19912;-75
2023/12/10 08:02:55;;;;;;;;;;;8.30;93.00;;;;;;5112193;28;20352;-76
2023/12/10 08:05:21;;;;;;;;;;;8.20;93.00;;;;;;5112230;28;20389;-75
2023/12/10 08:07:47;;;;;;;;;;;8.10;93.00;;;;;;5094180;28;20276;-75
2023/12/10 08:10:13;;;;;;;;;;;8.10;93.00;;;;;;5112215;28;20395;-76
2023/12/10 08:12:38;;;;;;;;;;;8.00;93.00;;;;;;5112646;28;19904;-75
2023/12/10 08:15:04;;;;;;;;;;;7.90;93.00;;;;;;5112057;28;19915;-76
2023/12/10 08:17:30;;;;;;;;;;;7.80;93.00;;;;;;5112108;28;20274;-76
2023/12/10 08:19:55;;;;;;;;;;;7.70;93.20;;;;;;5076976;28;19912;-76
2023/12/10 08:22:21;;;;;;;;;;;7.60;93.00;;;;;;5093861;28;19907;-75
2023/12/10 08:24:47;;;;;;;;;;;7.60;93.10;;;;;;5093277;28;20374;-76
2023/12/10 08:27:12;;;;;;;;;;;7.50;93.10;;;;;;5076756;28;19912;-76
2023/12/10 08:29:38;;;;;;;;;;;7.50;93.10;;;;;;5112170;28;19915;-75
2023/12/10 08:32:04;;;;;;;;;;;7.40;93.10;;;;;;5111888;28;20056;-75
2023/12/10 08:34:29;;;;;;;;;;;7.40;93.10;;;;;;5111902;28;19907;-76
2023/12/10 08:36:55;;;;;;;;;;;7.40;93.10;;;;;;5076711;28;20297;-75
2023/12/10 08:39:20;;;;;;;;;;;7.40;93.10;;;;;;5095082;28;20436;-76
2023/12/10 08:41:46;;;;;;;;;;;7.40;93.20;;;;;;5100144;28;19911;-75
2023/12/10 08:44:11;;;;;;;;;;;7.40;93.20;;;;;;5100353;28;19915;-75
2023/12/10 08:46:37;;;;;;;;;;;7.50;93.30;;;;;;5100402;28;19918;-76
2023/12/10 08:49:02;;;;;;;;;;;7.60;93.30;;;;;;5100301;28;19912;-75
2023/12/10 08:51:28;;;;;;;;;;;7.70;93.20;;;;;;5118826;28;19911;-75
2023/12/10 08:53:54;;;;;;;;;;;7.80;93.20;;;;;;5100272;28;20007;-76
2023/12/10 08:56:19;;;;;;;;;;;7.90;93.20;;;;;;5099746;28;19919;-75
2023/12/10 08:58:45;;;;;;;;;;;8.00;93.20;;;;;;5099843;28;19907;-75
2023/12/10 09:01:11;;;;;;;;;;;8.00;93.20;;;;;;5118127;28;19908;-75
2023/12/10 09:03:38;;;;;;;;;;;8.10;93.20;;;;;;5099961;28;19911;-76
2023/12/10 09:06:04;;;;;;;;;;;8.10;93.20;;;;;;5118316;28;19922;-76
2023/12/10 09:08:30;;;;;;;;;;;8.20;93.20;;;;;;5118309;28;19907;-75
2023/12/10 09:10:55;;;;;;;;;;;8.30;93.20;;;;;;5100074;28;19908;-75
2023/12/10 09:13:21;;;;;;;;;;;8.40;93.20;;;;;;5099963;28;20329;-76
2023/12/10 09:15:46;;;;;;;;;;;8.50;93.20;;;;;;5118261;28;19958;-75
2023/12/10 09:18:12;;;;;;;;;;;8.50;93.20;;;;;;5118301;28;19908;-76
2023/12/10 09:20:38;;;;;;;;;;;8.60;93.20;;;;;;5099806;28;20307;-75
2023/12/10 09:23:03;;;;;;;;;;;8.60;93.20;;;;;;5118087;28;20272;-75
2023/12/10 09:25:29;;;;;;;;;;;8.70;93.20;;;;;;5099295;28;20010;-75
2023/12/10 09:27:54;;;;;;;;;;;8.80;93.30;;;;;;5082531;28;19912;-76
2023/12/10 09:30:20;;;;;;;;;;;8.90;93.30;;;;;;5099463;28;20351;-76
2023/12/10 09:32:45;;;;;;;;;;;9.00;93.30;;;;;;5118058;28;20313;-76
2023/12/10 09:35:11;;;;;;;;;;;9.10;93.30;;;;;;5117946;28;19924;-76
2023/12/10 09:37:37;;;;;;;;;;;9.20;93.30;;;;;;5099381;28;20318;-73
2023/12/10 09:40:03;;;;;;;;;;;9.30;93.20;;;;;;5082941;28;20369;-76
2023/12/10 09:42:29;;;;;;;;;;;9.30;93.20;;;;;;5099709;28;20023;-76
2023/12/10 09:44:54;;;;;;;;;;;9.40;93.30;;;;;;5099471;28;20010;-76
2023/12/10 09:47:20;;;;;;;;;;;9.40;93.30;;;;;;5117681;28;20283;-75
2023/12/10 09:49:46;;;;;;;;;;;9.50;93.40;;;;;;5099704;28;20270;-76
2023/12/10 09:52:12;;;;;;;;;;;9.60;93.40;;;;;;5114063;28;20011;-76
2023/12/10 09:54:39;;;;;;;;;;;9.80;93.40;;;;;;5114515;28;19911;-76
2023/12/10 09:57:05;;;;;;;;;;;9.90;93.40;;;;;;5114355;28;19911;-76
2023/12/10 09:59:31;;;;;;;;;;;9.90;93.40;;;;;;5096380;28;20359;-75
2023/12/10 10:01:57;;;;;;;;;;;10.00;93.40;;;;;;5114301;28;19918;-76
2023/12/10 10:04:23;;;;;;;;;;;10.10;93.40;;;;;;5114469;28;19907;-76
2023/12/10 10:06:48;;;;;;;;;;;10.20;93.40;;;;;;5114307;28;19914;-76
2023/12/10 10:09:14;;;;;;;;;;;10.30;93.50;;;;;;5096144;28;20213;-75
2023/12/10 10:11:40;;;;;;;;;;;10.50;93.60;;;;;;5079041;28;20233;-76
2023/12/10 10:14:05;;;;;;;;;;;10.60;93.50;;;;;;5114108;28;20359;-76
2023/12/10 10:16:31;;;;;;;;;;;10.90;93.90;;;;;;5095645;28;19916;-75
2023/12/10 10:18:58;;;;;;;;;;;11.30;94.20;;;;;;5095882;28;19907;-76
2023/12/10 10:21:24;;;;;;;;;;;11.80;94.10;;;;;;5114211;28;19961;-76
2023/12/10 10:23:49;;;;;;;;;;;11.90;93.70;;;;;;5113985;28;19908;-76
2023/12/10 10:26:15;;;;;;;;;;;12.00;93.80;;;;;;5113831;28;19919;-76
2023/12/10 10:28:41;;;;;;;;;;;12.20;94.10;;;;;;5113770;28;20510;-75
2023/12/10 10:31:08;;;;;;;;;;;12.70;94.30;;;;;;5113884;28;20304;-75
2023/12/10 10:33:33;;;;;;;;;;;13.10;94.30;;;;;;5114170;28;19904;-76
2023/12/10 10:35:59;;;;;;;;;;;13.40;94.20;;;;;;5113602;28;19944;-76
2023/12/10 10:38:26;;;;;;;;;;;13.70;94.00;;;;;;5113899;28;19961;-76
2023/12/10 10:40:52;;;;;;;;;;;13.80;94.00;;;;;;5095436;28;19911;-75
2023/12/10 10:43:17;;;;;;;;;;;13.90;94.00;;;;;;5095297;28;20440;-75
2023/12/10 10:45:43;;;;;;;;;;;14.10;94.10;;;;;;5113457;28;19911;-76
2023/12/10 10:48:09;;;;;;;;;;;14.10;93.80;;;;;;5113530;28;20379;-76
2023/12/10 10:50:36;;;;;;;;;;;14.20;94.00;;;;;;5095237;28;19907;-76
2023/12/10 10:53:02;;;;;;;;;;;14.30;94.10;;;;;;5112946;28;19911;-76
2023/12/10 10:55:28;;;;;;;;;;;14.50;94.20;;;;;;5112979;28;19980;-76
2023/12/10 10:57:54;;;;;;;;;;;14.60;94.10;;;;;;5113266;28;19908;-76
2023/12/10 11:00:22;;;;;;;;;;;14.80;94.10;;;;;;5094548;28;19911;-76
2023/12/10 11:02:52;;;;;;;;;;;14.90;94.20;;;;;;5113020;28;19907;-76
2023/12/10 11:05:29;;;;;;;;;;;15.00;94.20;;;;;;5113571;28;19910;-76
2023/12/10 11:07:55;;;;;;;;;;;15.20;94.20;;;;;;5094533;28;19915;-76
2023/12/10 11:10:21;;;;;;;;;;;15.30;94.20;;;;;;5112931;28;19907;-75
2023/12/10 11:12:48;;;;;;;;;;;15.50;94.20;;;;;;5094365;28;19928;-76
2023/12/10 11:15:17;;;;;;;;;;;15.60;94.30;;;;;;5094431;28;19918;-76
2023/12/10 11:17:54;;;;;;;;;;;15.70;94.20;;;;;;5112753;28;19963;-76
2023/12/10 11:20:36;;;;;;;;;;;15.80;94.20;;;;;;5112603;28;19904;-76
2023/12/10 11:23:03;;;;;;;;;;;15.70;94.10;;;;;;5094214;28;20351;-75
2023/12/10 11:25:29;;;;;;;;;;;15.70;94.10;;;;;;5112602;28;20344;-76
2023/12/10 11:27:58;;;;;;;;;;;15.70;94.30;;;;;;5093924;28;19914;-76
2023/12/10 11:30:38;;;;;;;;;;;15.80;94.30;;;;;;5094015;28;20378;-76
2023/12/10 11:33:05;;;;;;;;;;;15.80;94.30;;;;;;5094083;28;20412;-76
2023/12/10 11:35:30;;;;;;;;;;;15.90;94.20;;;;;;5112277;28;20003;-76
2023/12/10 11:37:56;;;;;;;;;;;15.80;94.10;;;;;;5112105;28;20167;-76
2023/12/10 11:40:22;;;;;;;;;;;15.70;94.50;;;;;;5112219;28;20368;-76
2023/12/10 11:42:47;;;;;;;;;;;15.80;94.40;;;;;;5094243;28;19912;-76
2023/12/10 11:45:14;;;;;;;;;;;15.80;94.30;;;;;;5112295;28;19961;-75
2023/12/10 11:47:43;;;;;;;;;;;15.90;94.40;;;;;;5077041;28;19968;-76
2023/12/10 11:50:09;;;;;;;;;;;16.00;94.40;;;;;;5093746;28;19961;-76
2023/12/10 11:52:35;;;;;;;;;;;16.00;94.00;;;;;;5112020;28;19908;-76
2023/12/10 11:55:02;;;;;;;;;;;16.00;94.10;;;;;;5093431;28;20002;-76
2023/12/10 11:57:27;;;;;;;;;;;16.00;94.20;;;;;;5093506;28;20256;-76
2023/12/10 11:59:53;;;;;;;;;;;15.90;94.20;;;;;;5093728;28;20098;-76
2023/12/10 12:02:19;;;;;;;;;;;16.00;94.40;;;;;;5111930;28;20290;-75
2023/12/10 12:04:45;;;;;;;;;;;16.00;94.30;;;;;;5093637;28;19904;-76
2023/12/10 12:07:23;;;;;;;;;;;16.00;94.30;;;;;;5111501;28;19915;-76
2023/12/10 12:09:49;;;;;;;;;;;15.90;94.10;;;;;;5111875;28;19908;-71
2023/12/10 12:12:15;;;;;;;;;;;15.70;94.20;;;;;;5111403;28;20010;-76
2023/12/10 12:14:42;;;;;;;;;;;15.70;94.30;;;;;;5111216;28;20003;-76
2023/12/10 12:17:08;;;;;;;;;;;15.70;94.40;;;;;;5111169;28;19912;-76
2023/12/10 12:19:33;;;;;;;;;;;15.80;94.50;;;;;;5111187;28;20327;-76
2023/12/10 12:21:59;;;;;;;;;;;15.70;94.30;;;;;;5111618;28;19915;-76
2023/12/10 12:24:25;;;;;;;;;;;15.50;94.10;;;;;;5076331;28;19915;-76
2023/12/10 12:26:51;;;;;;;;;;;15.20;93.80;;;;;;5110885;28;19967;-76
2023/12/10 12:29:17;;;;;;;;;;;14.90;93.80;;;;;;5111588;28;20245;-76
2023/12/10 12:31:42;;;;;;;;;;;14.50;93.80;;;;;;5111349;28;19910;-76
2023/12/10 12:34:08;;;;;;;;;;;14.20;93.80;;;;;;5111082;28;19915;-76
2023/12/10 12:36:34;;;;;;;;;;;13.90;93.80;;;;;;5111120;28;20018;-76
2023/12/10 12:38:59;;;;;;;;;;;13.70;93.90;;;;;;5093054;28;19918;-76
2023/12/10 12:41:25;;;;;;;;;;;13.60;94.00;;;;;;5111335;28;19908;-76
2023/12/10 12:43:50;;;;;;;;;;;13.50;94.00;;;;;;5111336;28;19920;-75
2023/12/10 12:46:18;;;;;;;;;;;13.40;94.00;;;;;;5092675;28;19911;-76
2023/12/10 12:48:43;;;;;;;;;;;13.30;94.00;;;;;;5092955;28;20268;-76
2023/12/10 12:51:09;;;;;;;;;;;13.20;94.10;;;;;;5092628;28;19915;-76
2023/12/10 12:53:35;;;;;;;;;;;13.10;94.00;;;;;;5110873;28;20419;-75
2023/12/10 12:56:01;;;;;;;;;;;13.10;94.00;;;;;;5092435;28;19911;-76
2023/12/10 12:58:26;;;;;;;;;;;13.00;94.00;;;;;;5092015;28;19912;-75
2023/12/10 13:00:52;;;;;;;;;;;13.00;94.00;;;;;;5092806;28;19930;-76
2023/12/10 13:03:17;;;;;;;;;;;12.90;94.00;;;;;;5111140;28;20275;-76
2023/12/10 13:05:43;;;;;;;;;;;12.90;94.00;;;;;;5093117;28;19912;-76
2023/12/10 13:08:09;;;;;;;;;;;12.90;94.00;;;;;;5111045;28;19915;-76
2023/12/10 13:10:34;;;;;;;;;;;12.80;94.00;;;;;;5092721;28;19908;-76
2023/12/10 13:13:00;;;;;;;;;;;12.80;94.00;;;;;;5110858;28;19925;-76
2023/12/10 13:15:25;;;;;;;;;;;12.80;94.00;;;;;;5110716;28;19911;-76
2023/12/10 13:17:51;;;;;;;;;;;12.80;94.00;;;;;;5110872;28;19943;-76
2023/12/10 13:20:18;;;;;;;;;;;12.80;94.00;;;;;;5092187;28;19956;-75
2023/12/10 13:22:43;;;;;;;;;;;12.70;94.00;;;;;;5110878;28;19926;-76
2023/12/10 13:25:09;;;;;;;;;;;12.80;94.10;;;;;;5088739;28;19920;-76
2023/12/10 13:27:35;;;;;;;;;;;12.80;94.20;;;;;;5093004;28;19908;-76
2023/12/10 13:30:00;;;;;;;;;;;13.00;94.30;;;;;;5075452;28;20292;-76
2023/12/10 13:32:26;;;;;;;;;;;13.10;94.40;;;;;;5094426;28;19904;-76
2023/12/10 13:34:52;;;;;;;;;;;13.20;94.40;;;;;;5094409;28;19911;-76
2023/12/10 13:37:17;;;;;;;;;;;13.30;94.40;;;;;;5092652;28;20014;-76
2023/12/10 13:39:43;;;;;;;;;;;13.40;94.40;;;;;;5092612;28;19950;-75
2023/12/10 13:42:08;;;;;;;;;;;13.50;94.30;;;;;;5094136;28;20347;-76
2023/12/10 13:44:34;;;;;;;;;;;13.50;94.30;;;;;;5092345;28;20299;-76
2023/12/10 13:46:59;;;;;;;;;;;13.50;94.20;;;;;;5093658;28;19908;-76
2023/12/10 13:49:25;;;;;;;;;;;13.40;94.10;;;;;;5093629;28;19951;-76
2023/12/10 13:51:50;;;;;;;;;;;13.40;94.20;;;;;;5092170;28;19935;-75
2023/12/10 13:54:16;;;;;;;;;;;13.30;94.10;;;;;;5093638;28;19912;-75
2023/12/10 13:56:42;;;;;;;;;;;13.20;94.00;;;;;;5091943;28;19924;-75
2023/12/10 13:59:07;;;;;;;;;;;13.10;94.10;;;;;;5093572;28;19954;-75
2023/12/10 14:01:35;;;;;;;;;;;13.10;94.20;;;;;;5092447;28;19904;-76
2023/12/10 14:04:01;;;;;;;;;;;13.10;94.20;;;;;;5093525;28;19915;-76
2023/12/10 14:06:27;;;;;;;;;;;13.10;94.10;;;;;;5092582;28;19916;-77
2023/12/10 14:08:53;;;;;;;;;;;12.90;93.90;;;;;;5093930;28;19915;-77
2023/12/10 14:11:19;;;;;;;;;;;12.80;93.80;;;;;;5092655;28;19922;-76
2023/12/10 14:13:45;;;;;;;;;;;12.70;93.80;;;;;;5093524;28;19908;-76
2023/12/10 14:16:10;;;;;;;;;;;12.60;93.80;;;;;;5093276;28;20229;-76
2023/12/10 14:18:36;;;;;;;;;;;12.50;93.80;;;;;;5092125;28;19908;-76